Extreme weather reports worldwide

Lowest temperatures

Station
 
Location
 
Name
 
Wind
Knots
Gust
Knots
Vis
SM
Temp/Dew
C
Baro
inHg
METAR
 
ARC PARC Arctic Village, US Arctic Village Airport 3 -40/ 30.55 PARC 290342Z AUTO 3SM BR CLR M40/ A3055 RMK AO2 FZRANO $
MJZ UERR Mirny, RU Mirny Airport 0 2.49 -37/-41 30.32 UERR 290330Z 00000MPS 4000 BR NSC M37/M41 Q1027 R25/390142 NOSIG RMK QFE739/0985
FYU PFYU Fort Yukon, US Fort Yukon Airport 0 4 -37/ 30.80 PFYU 290256Z 00000KT 4SM HZ CLR M38/ A3080 RMK AO2 SLP459 6//// T1378 53003
CWEU 12 10 -36/-41 29.96 CWEU 290300Z 10012KT 10SM -SN FEW030 SCT075 M36/M41 A2996 RMK SC2AC1 LAST STFD OBS/NXT 290600Z SLP167
UKK UASK Ust Kamenogorsk, KZ Ust-Kamennogorsk Airport 2 1.3 -35/-38 31.03 UASK 290330Z 01001MPS 2100 BR FEW006 M35/M38 Q1051 NOSIG RMK QBB200 QFE762/1016

Station
 
Location
 
Name
 
Wind
Knots
Gust
Knots
Vis
SM
Temp/Dew
C
Baro
inHg
METAR
 
UUK PAKU Kuparuk, US Ugnu-Kuparuk Airport 4 10 -34/-37 30.78 PAKU 290345Z 20004KT 10SM R24/P6000FT SKC M34/M37 A3078
PAAD Deadhorse, US Point Thomson Airstrip 4 10 -34/-37 30.80 PAAD 290335Z AUTO 28004KT 10SM CLR M34/M37 A3080 RMK AO2 T13451375
PLX UASS Semey, KZ Semipalatinsk Airport 0 6.21 -34/-38 31.06 UASS 290330Z 00000MPS CAVOK M34/M38 Q1052 NOSIG RMK QFE770/1027
BTI PABA Barter Island Lrrs, US Barter Island LRRS Airport 7 4 -34/-37 30.81 PABA 290311Z AUTO 24007KT 4SM HZ OVC002 M34/M37 A3081 RMK AO2 FZRANO
YHK CYHK Gjoa Haven, CA Gjoa Haven Airport 9 5 -34/-38 30.37 CYHK 290300Z AUTO 29009KT 5SM HZ CLR M34/M38 A3037 RMK SLP296
NUI PAQT Nuiqsut, US Nuiqsut Airport 9 8 -34/ 30.80 PAQT 290253Z AUTO 20009KT 8SM CLR M34/ A3080 RMK AO2 SLP431 T1344 55003 TSNO PNO
YKS UEEE Yakutsk, RU Yakutsk Airport 2 6.21 -33/-37 30.32 UEEE 290330Z 26001MPS CAVOK M33/M37 Q1027 R23L/490155 NOSIG RMK QFE762
CYUS 8 -33/-38 30.34 CYUS 290326Z AUTO VRB08KT ////SM //// FEW002 M33/M38 A3034
CZRP 10 -33/-36 CZRP 290300Z AUTO 28010KT M33/M36 RMK AO1 SOG 71 8009 SLP171 T13301364 50002
CWIJ 0 -33/-36 CWIJ 290300Z AUTO 00000KT M33/M36 RMK AO1 SOG 26 4000 SLP392 T13301364
DQH PALP Nuiqsut, US Alpine Airstrip 6 10 -33/-37 30.79 PALP 290258Z 20006KT 10SM SKC M33/M37 A3079
NZSP AQ South Pole Station Airport 11 6.21 -33/ 28.64 NZSP 290250Z 07011KT 9999 FEW180 M33/ A2864 RMK CLN AIR 06013KT ALL WNDS GRID SDG/HDG
YCK CYVL Colville Lake, CA Tommy Kochon Airport 4 4 -32/-35 30.68 CYVL 290337Z AUTO 19004KT 4SM -SN OVC038 M32/M35 A3068 RMK SLP441
YYH CYYH Taloyoak, CA Taloyoak Airport 2 2 -32/-35 30.33 CYYH 290300Z VRB02KT 2SM IC BR BKN002 M32/M35 A3033 RMK FG4ST2 SLP279
CYWE 2 9 -32/-36 30.54 CYWE 290300Z AUTO VRB02KT 9SM SCT140 M32/M36 A3054 RMK ICE MISG SLP407
CXAT 11 -32/-37 CXAT 290300Z AUTO 06011KT M32/M37 RMK AO1 SOG 09 5001 SLP205 T13221373
CWMT 3 -32/-35 CWMT 290300Z AUTO 33003KT M32/M36 RMK AO1 SOG 16 3004 SLP418 T13241357
MCL PAIN McKinley Park, US McKinley National Park Airport 0 10 -32/-36 30.52 PAIN 290256Z AUTO 00000KT 10SM CLR M33/M36 A3052 RMK AO2 SLP426 T13281361 53013 FZRANO
YUX CYUX Hall Beach, CA Hall Beach Airport 18 23 3 -31/-34 30.13 CYUX 290324Z AUTO 32018G23KT 3SM HZ CLR M31/M34 A3013 RMK SLP205
YVQ CYVQ Norman Wells, CA Norman Wells Airport 0 20 -31/-34 30.84 CYVQ 290300Z 00000KT 20SM -SN FEW040 SCT065 BKN100 BKN250 M31/M34 A3084 RMK SC1SC2AC3CI1 SLP460
SCC PASC Deadhorse, US Deadhorse Airport 11 10 -31/-34 30.79 PASC 290253Z 21011KT 10SM CLR M32/M34 A3079 RMK AO2 SLP429 T13171344 53001
YRB CYRB Resolute Bay, CA Resolute Bay Airport 12 15 -30/-33 30.03 CYRB 290300Z 23012KT 15SM -SN BKN028 M30/M33 A3003 RMK SC6 SLP187
CWIL -30/-33 30.41 CWIL 290300Z AUTO ///// ////SM ////// M30/M33 A3041
IAN PAIK Kiana, US Bob Baker Memorial Airport 4 10 -30/-32 30.83 PAIK 290256Z AUTO 34004KT 10SM CLR M31/M33 A3083 RMK AO2 SLP451 T13061328 53003 FZRANO
BTT PABT Bettles, US Bettles Airport 0 10 -30/-33 30.76 PABT 290253Z 00000KT 10SM FEW039 M31/M34 A3076 RMK AO2 SLP446 T13061339 53007
PYJ UERP Yakutia, RU Polyarny Airport 4 6.21 -29/-32 30.21 UERP 290330Z 29002MPS 9999 -SN SCT030 BKN100 M29/M32 Q1023 R35/491036 NOSIG RMK QFE723
PWQ UASP Pavlodar, KZ Pavlodar Airport 6 6.21 -29/-33 31.12 UASP 290330Z 13003MPS CAVOK M29/M33 Q1054 NOSIG RMK QFE780/1040
YIO CYIO Pond Inlet, CA Pond Inlet Airport 7 9 -29/-32 29.99 CYIO 290300Z AUTO 21007KT 9SM SCT026 OVC033 M29/M32 A2999 RMK SLP169
YCB CYCB Cambridge Bay, CA Cambridge Bay Airport 9 12 -29/-32 30.44 CYCB 290300Z 26009KT 12SM IC FEW035 FEW240 M29/M32 A3044 RMK SC1CI1 AURBO SLP316
YBK CYBK Baker Lake, CA Baker Lake Airport 21 10 -29/-33 30.41 CYBK 290300Z 33021KT 10SM DRSN SKC M29/M33 A3041 RMK SLP305
CXTN 0 -29/-32 CXTN 290300Z AUTO 00000KT M30/M33 RMK AO1 SOG 54 8006 SLP401 T12971329
YZF CYZF Yellowknife, CA Yellowknife Airport 9 15 -28/-31 30.57 CYZF 290300Z 36009KT 15SM SCT220 M28/M31 A3057 RMK CI3 SLP384
YEV CYEV Inuvik, CA Inuvik Mike Zubko Airport 2 15 -28/-31 30.79 CYEV 290300Z VRB02KT 15SM IC FEW020 M28/M31 A3079 RMK SC1 SLP440
YCO CYCO Kugluktuk, CA Kugluktuk Airport 17 15 -28/-32 30.67 CYCO 290300Z 24017KT 15SM DRSN FEW210 M28/M32 A3067 RMK CI1 SLP391
CXSE 17 -28/-31 CXSE 290300Z AUTO 28017KT M29/M32 RMK AO1 SOG 04 6006 PK WND 29025/0204 SLP200 T12871316
CXRB 11 -28/-32 CXRB 290300Z AUTO 24011KT M29/M33 RMK AO1 SOG 04 8014 SLP183 T12851326
CWRX -28/-31 CWRX 290300Z AUTO ///// ////SM ////// M28/M31 A////
CWPX 23 -28/-32 30.35 CWPX 290300Z AUTO 29023KT ////SM //// FEW003 SCT130 BKN160 M28/M32 A3035
CWLX -28/-31 29.84 CWLX 290300Z AUTO ///// ////SM ////// M28/M31 A2984
CFOX -28/-31 29.94 CFOX 290300Z AUTO ///// ////SM ////// M28/M31 A2994
AKP PAKP Anaktuvuk Pass, US Anaktuvuk Pass Airport 0 10 -28/-31 30.57 PAKP 290256Z AUTO 00000KT 10SM CLR M28/M32 A3057 RMK AO2 SLP463 T12831317 53008 FZRANO
FBK PAFB Fairbanks/Ft Wainwright, US Ladd AAF Airfield 0 10 -28/-31 30.67 PAFB 290255Z 00000KT 10SM CLR M28/M31 A3067 RMK AO2A SLP411 T12821311 52010
UBN ZMCK Ulaanbaatar, MN Ulaanbaatar International Airport 16 6.21 -27/-32 30.38 ZMCK 290330Z 30008MPS CAVOK M27/M32 Q1029 NOSIG RMK QFE655.0 57
BAX UNBB Barnaul, RU Barnaul Airport 4 6.21 -27/-32 31.06 UNBB 290330Z 02002MPS CAVOK M27/M32 Q1052 R24/910255 NOSIG RMK QFE766
ULN ZMUB Ulan Bator, MN Buyant-Ukhaa International Airport 4 6.21 -27/-33 30.44 ZMUB 290300Z VRB02MPS CAVOK M27/M33 Q1031 NOSIG RMK QFE664.6 56